Cleveland, GA (30528)

10:44 AM EDT on August 25, 2016 (GMT -0400)
Jenny's Creek | | Change Station

Elev 1675 ft 34.61 °N, 83.83 °W | Updated 2 minutes ago

Clear
Clear
78.3 °F
Feels Like 81 °F
N
0.0
Wind Variable Wind from West

Today
High -- | Low -- °F
--% Chance of Precip.
Yesterday
High -- | Low -- °F
Precip. -- in
Pressure 30.22 in
Visibility 10.0 miles
Clouds Clear
Heat Index 81 °F
Dew Point 70 °F
Humidity 76%
Rainfall 0.00 in
Snow Depth Not available.
7:03 AM 8:10 PM
Last Quarter, 45% visible
METAR KGVL 251353Z AUTO 00000KT 10SM CLR 26/20 A3026 RMK AO2 SLP231 T02560200
Pressure 30.22 in
Visibility 10.0 miles
Clouds Clear
Heat Index 81 °F
Dew Point 70 °F
Humidity 76%
Rainfall 0.00 in
Snow Depth Not available.
7:03 AM 8:10 PM
Last Quarter, 45% visible
METAR KGVL 251353Z AUTO 00000KT 10SM CLR 26/20 A3026 RMK AO2 SLP231 T02560200

10-Day Weather Forecast

Almanac

Astronomy

Aug. 25, 2016 Rise Set
Actual Time
Civil Twilight
Nautical Twilight
Astronomical Twilight
Moon
Length of Visible Light
Length of Day
Tomorrow will be .
, % of the Moon is Illuminated

Today's Extremes

State Highs State Lows

Community

WunderPhotos

Upload Photos

1,934,850 photos uploaded!

WunderBlog® & News

Nearby

Air Quality

  Air Quality AQ Index Pollutant
Not available.

Snow Depth

Station Depth Elevation

Earthquake Activity

City Distance Mag. Time & Date
Minimum magnitude displayed is 2.5.

Coastal Water Temperatures

Place Temperature

Stations

Nearby Weather Stations

Station Location Temp. Windchill Dew Point Humidity Wind Precip. Elev Updated Type
                   

Watches & Warnings

There are currently no watches in effect.